Pagrindinis puslapis
METAR-TAF:

METAR-TAF

Oro uostai :

Forli, Italija

platuma: 44-12N, ilguma: 012-04E, Aukštis: 27 m

Dabartinis oras

Ataskaita buvo paskelbta 3 valandos ir 47 minutes, ne 15:50 UTC
Vėjas 1 kt nuo kintamojo kryptimis
Temperatūra 20°C
Drėgmė 68%
Slėgis 1019 hPa
Matomumas 10 km arba daugiau
Mažai debesys ne aukštis 2000 ft

METAR: LIPK 191550Z VRB01KT 9999 FEW020 20/14 Q1019

Laikas: 21:37 (19:37 UTC)


TAF: trūkstamas

Orai ataskaitas ir orų prognozės (METAR, TAF).

turimą stotys yra geltonos ir raudonos taškus žemėlapyje.

Perkelti pele per norėdami pamatyti stoties vardą.

Tada spustelėkite, norėdami matyti oro stebėjimo ir prognozės.

Norėdami pakeisti žemėlapį: spustelėkite ant žalios mygtukų su juodo kryžiaus žemyn,; žalią mygtuką su brūkšneliu, jei norite nutolinti; arba žalių rodyklių gretimoms žemėlapius.


METAR-TAF: